createdAt,value
2023-09-19T00:00:24.772Z,17.71
2023-09-19T00:02:58.849Z,17.71
2023-09-19T00:05:28.887Z,17.66
2023-09-19T00:07:57.772Z,17.65
2023-09-19T00:10:28.380Z,17.60
2023-09-19T00:13:00.073Z,17.64
2023-09-19T00:15:30.074Z,17.59
2023-09-19T00:17:57.466Z,17.56
2023-09-19T00:20:25.364Z,17.55
2023-09-19T00:22:55.016Z,17.51
2023-09-19T00:25:22.003Z,17.45
2023-09-19T00:27:52.722Z,17.37
2023-09-19T00:30:22.918Z,17.34
2023-09-19T00:32:53.382Z,17.39
2023-09-19T00:35:20.406Z,17.32
2023-09-19T00:37:47.180Z,17.26
2023-09-19T00:40:14.247Z,17.24
2023-09-19T00:42:41.992Z,17.26
2023-09-19T00:45:12.216Z,17.25
2023-09-19T00:47:50.373Z,17.18
2023-09-19T00:50:22.487Z,17.15
2023-09-19T00:52:51.441Z,17.14
2023-09-19T00:55:21.735Z,17.08
2023-09-19T00:57:51.392Z,17.04
2023-09-19T01:00:22.155Z,17.04
2023-09-19T01:02:49.700Z,17.01
2023-09-19T01:05:17.247Z,17.03
2023-09-19T01:07:46.023Z,17.00
2023-09-19T01:10:15.645Z,16.98
2023-09-19T01:13:07.015Z,16.96
2023-09-19T01:15:45.918Z,16.95
2023-09-19T01:18:23.343Z,16.95
2023-09-19T01:21:02.261Z,16.97
2023-09-19T01:23:49.016Z,16.96
2023-09-19T01:26:53.437Z,16.94
2023-09-19T01:29:51.384Z,16.93
2023-09-19T01:32:23.589Z,16.92
2023-09-19T01:35:05.285Z,16.96
2023-09-19T01:37:32.751Z,16.87
2023-09-19T01:40:09.896Z,16.92
2023-09-19T01:42:37.133Z,16.83
2023-09-19T01:45:24.101Z,16.83
2023-09-19T01:47:57.781Z,16.82
2023-09-19T01:50:42.248Z,16.84
2023-09-19T01:53:17.152Z,16.85
2023-09-19T01:55:50.731Z,16.87
2023-09-19T01:58:35.277Z,16.81
2023-09-19T02:01:02.653Z,16.80
2023-09-19T02:03:30.359Z,16.85
2023-09-19T02:05:57.292Z,16.86
2023-09-19T02:08:26.953Z,16.78
2023-09-19T02:10:54.267Z,16.77
2023-09-19T02:13:22.527Z,16.73
2023-09-19T02:15:49.463Z,16.73
2023-09-19T02:18:16.242Z,16.69
2023-09-19T02:20:43.201Z,16.73
2023-09-19T02:23:11.100Z,16.73
2023-09-19T02:25:39.423Z,16.70
2023-09-19T02:28:06.855Z,16.68
2023-09-19T02:30:34.199Z,16.68
2023-09-19T02:33:04.511Z,16.68
2023-09-19T02:35:36.701Z,16.67
2023-09-19T02:38:07.809Z,16.65
2023-09-19T02:40:37.334Z,16.64
2023-09-19T02:43:04.831Z,16.65
2023-09-19T02:45:32.055Z,16.62
2023-09-19T02:47:59.525Z,16.55
2023-09-19T02:50:26.293Z,16.55
2023-09-19T02:52:53.197Z,16.52
2023-09-19T02:55:21.370Z,16.60
2023-09-19T02:57:49.868Z,16.70
2023-09-19T03:00:18.213Z,16.67
2023-09-19T03:02:47.616Z,16.59
2023-09-19T03:05:14.954Z,16.59
2023-09-19T03:07:44.387Z,16.51
2023-09-19T03:10:11.277Z,16.55
2023-09-19T03:12:38.111Z,16.52
2023-09-19T03:15:05.891Z,16.48
2023-09-19T03:17:34.115Z,16.42
2023-09-19T03:20:00.983Z,16.44
2023-09-19T03:22:28.674Z,16.38
2023-09-19T03:24:55.541Z,16.33
2023-09-19T03:27:22.408Z,16.38
2023-09-19T03:29:49.225Z,16.27
2023-09-19T03:32:16.573Z,16.28
2023-09-19T03:34:44.615Z,16.33
2023-09-19T03:37:11.682Z,16.35
2023-09-19T03:39:38.537Z,16.28
2023-09-19T03:42:05.486Z,16.29
2023-09-19T03:44:32.195Z,16.28
2023-09-19T03:46:59.267Z,16.33
2023-09-19T03:49:26.087Z,16.33
2023-09-19T03:51:53.135Z,16.37
2023-09-19T03:54:20.900Z,16.32
2023-09-19T03:56:47.654Z,16.30
2023-09-19T03:59:15.029Z,16.27
2023-09-19T04:01:42.669Z,16.20
2023-09-19T04:04:09.732Z,16.20
2023-09-19T04:06:36.681Z,16.19
2023-09-19T04:09:04.849Z,16.19
2023-09-19T04:11:32.613Z,16.18
2023-09-19T04:13:59.547Z,16.17
2023-09-19T04:16:26.695Z,16.13
2023-09-19T04:18:53.487Z,16.08
2023-09-19T04:21:20.493Z,16.01
2023-09-19T04:23:47.366Z,16.05
2023-09-19T04:26:14.081Z,16.02
2023-09-19T04:28:41.817Z,15.99
2023-09-19T04:31:09.526Z,16.02
2023-09-19T04:33:36.609Z,16.02
2023-09-19T04:36:14.736Z,16.03
2023-09-19T04:38:51.704Z,16.03
2023-09-19T04:41:18.455Z,15.98
2023-09-19T04:43:45.192Z,15.98
2023-09-19T04:46:12.113Z,15.96
2023-09-19T04:48:39.393Z,15.95
2023-09-19T04:51:06.558Z,15.99
2023-09-19T04:53:33.359Z,15.89
2023-09-19T04:56:00.015Z,15.91
2023-09-19T04:58:26.992Z,15.88
2023-09-19T05:00:53.874Z,15.85
2023-09-19T05:03:21.528Z,15.85
2023-09-19T05:05:48.317Z,15.82
2023-09-19T05:08:16.015Z,15.90
2023-09-19T05:10:42.913Z,15.88
2023-09-19T05:13:09.749Z,15.91
2023-09-19T05:15:36.983Z,15.86
2023-09-19T05:18:04.786Z,15.89
2023-09-19T05:20:33.955Z,15.88
2023-09-19T05:23:06.945Z,15.88
2023-09-19T05:25:34.272Z,15.91
2023-09-19T05:28:05.182Z,15.95
2023-09-19T05:30:32.037Z,15.97
2023-09-19T05:32:59.343Z,16.02
2023-09-19T05:35:27.686Z,15.99
2023-09-19T05:37:56.105Z,15.99
2023-09-19T05:40:23.343Z,16.02
2023-09-19T05:42:51.883Z,15.99
2023-09-19T05:45:23.725Z,16.03
2023-09-19T05:47:51.482Z,16.06
2023-09-19T05:50:19.815Z,16.13
2023-09-19T05:52:54.137Z,16.15
2023-09-19T05:55:22.224Z,16.14
2023-09-19T05:57:53.016Z,16.10
2023-09-19T06:00:25.085Z,16.11
2023-09-19T06:02:56.052Z,16.11
2023-09-19T06:05:23.229Z,16.09
2023-09-19T06:07:50.135Z,16.09
2023-09-19T06:10:18.778Z,16.11
2023-09-19T06:12:45.710Z,16.08
2023-09-19T06:15:24.204Z,16.12
2023-09-19T06:17:52.062Z,16.15
2023-09-19T06:20:19.225Z,16.21
2023-09-19T06:22:46.986Z,16.21
2023-09-19T06:25:21.172Z,16.21
2023-09-19T06:27:56.209Z,16.20
2023-09-19T06:30:27.254Z,16.21
2023-09-19T06:32:58.309Z,16.25
2023-09-19T06:35:27.500Z,16.24
2023-09-19T06:37:54.395Z,16.30
2023-09-19T06:40:21.350Z,16.30
2023-09-19T06:42:50.553Z,16.38
2023-09-19T06:45:20.582Z,16.33
2023-09-19T06:47:51.110Z,16.32
2023-09-19T06:50:24.335Z,16.31
2023-09-19T06:52:53.256Z,16.30
2023-09-19T06:55:21.657Z,16.28
2023-09-19T06:57:49.403Z,16.29
2023-09-19T07:00:17.261Z,16.27
2023-09-19T07:02:44.110Z,16.31
2023-09-19T07:05:11.118Z,16.32
2023-09-19T07:07:38.182Z,16.28
2023-09-19T07:10:11.498Z,16.30
2023-09-19T07:12:38.222Z,16.29
2023-09-19T07:15:07.277Z,16.30
2023-09-19T07:17:34.600Z,16.35
2023-09-19T07:20:01.629Z,16.34
2023-09-19T07:22:28.676Z,16.39
2023-09-19T07:24:56.168Z,16.39
2023-09-19T07:27:22.974Z,16.44
2023-09-19T07:29:51.099Z,16.44
2023-09-19T07:32:19.907Z,16.45
2023-09-19T07:34:47.020Z,16.44
2023-09-19T07:37:16.054Z,16.44
2023-09-19T07:39:42.840Z,16.46
2023-09-19T07:42:09.737Z,16.50
2023-09-19T07:44:37.720Z,16.47
2023-09-19T07:47:04.671Z,16.45
2023-09-19T07:49:31.568Z,16.51
2023-09-19T07:51:58.722Z,16.55
2023-09-19T07:54:25.637Z,16.59
2023-09-19T07:56:52.360Z,16.68
2023-09-19T07:59:19.083Z,16.58
2023-09-19T08:01:45.902Z,16.61
2023-09-19T08:04:12.810Z,16.61
2023-09-19T08:06:40.664Z,16.60
2023-09-19T08:09:10.555Z,16.70
2023-09-19T08:11:37.331Z,16.75
2023-09-19T08:14:04.148Z,16.77
2023-09-19T08:16:31.105Z,16.82
2023-09-19T08:18:57.929Z,16.79
2023-09-19T08:21:25.522Z,16.85
2023-09-19T08:23:52.389Z,16.83
2023-09-19T08:26:19.194Z,16.88
2023-09-19T08:28:45.946Z,16.85
2023-09-19T08:31:15.458Z,16.88
2023-09-19T08:33:42.849Z,16.95
2023-09-19T08:36:10.804Z,16.97
2023-09-19T08:38:38.186Z,17.04
2023-09-19T08:41:09.925Z,17.10
2023-09-19T08:43:39.663Z,17.15
2023-09-19T08:46:06.641Z,17.18
2023-09-19T08:48:36.412Z,17.24
2023-09-19T08:51:16.419Z,17.33
2023-09-19T08:54:20.268Z,17.39
2023-09-19T08:56:51.694Z,17.49
2023-09-19T08:59:30.704Z,17.47
2023-09-19T09:01:58.964Z,17.48
2023-09-19T09:04:27.668Z,17.53
2023-09-19T09:06:56.156Z,17.54
2023-09-19T09:09:22.918Z,17.58
2023-09-19T09:11:52.589Z,17.62
2023-09-19T09:14:19.945Z,17.64
2023-09-19T09:16:47.168Z,17.60
2023-09-19T09:19:14.156Z,17.64
2023-09-19T09:21:40.884Z,17.66
2023-09-19T09:24:35.474Z,17.73
2023-09-19T09:27:08.550Z,17.84
2023-09-19T09:29:52.665Z,17.82
2023-09-19T09:32:30.376Z,17.77
2023-09-19T09:35:01.431Z,17.81
2023-09-19T09:37:33.014Z,17.88
2023-09-19T09:40:15.978Z,17.93
2023-09-19T09:42:42.920Z,17.94
2023-09-19T09:45:37.066Z,18.02
2023-09-19T09:48:05.347Z,18.00
2023-09-19T09:50:43.176Z,17.96
2023-09-19T09:53:33.648Z,17.94
2023-09-19T09:56:01.376Z,17.95
2023-09-19T09:58:33.160Z,18.06
2023-09-19T10:01:01.357Z,18.12
2023-09-19T10:03:51.023Z,18.21
2023-09-19T10:06:29.242Z,18.36
2023-09-19T10:09:11.746Z,18.47
2023-09-19T10:11:45.586Z,18.56
2023-09-19T10:14:13.980Z,18.59
2023-09-19T10:16:49.486Z,18.52
2023-09-19T10:19:26.262Z,18.54
2023-09-19T10:21:56.637Z,18.64
2023-09-19T10:24:24.558Z,18.93
2023-09-19T10:26:52.101Z,18.92
2023-09-19T10:29:19.251Z,18.97
2023-09-19T10:31:49.199Z,19.07
2023-09-19T10:34:16.793Z,19.28
2023-09-19T10:36:46.682Z,19.52
2023-09-19T10:39:20.921Z,19.63
2023-09-19T10:42:00.095Z,19.91
2023-09-19T10:44:27.179Z,19.90
2023-09-19T10:46:55.174Z,19.85
2023-09-19T10:49:25.964Z,19.93
2023-09-19T10:51:59.644Z,19.75
2023-09-19T10:54:30.403Z,19.64
2023-09-19T10:57:00.189Z,19.56
2023-09-19T10:59:27.108Z,19.82
2023-09-19T11:02:00.029Z,19.74
2023-09-19T11:04:37.209Z,19.65
2023-09-19T11:07:13.835Z,19.65
2023-09-19T11:09:59.124Z,19.43
2023-09-19T11:12:52.229Z,19.39
2023-09-19T11:16:04.980Z,19.74
2023-09-19T11:18:44.864Z,19.97
2023-09-19T11:21:32.244Z,20.03
2023-09-19T11:24:26.538Z,19.76
2023-09-19T11:27:11.248Z,19.89
2023-09-19T11:29:39.002Z,19.78
2023-09-19T11:32:07.294Z,19.86
2023-09-19T11:34:37.431Z,19.91
2023-09-19T11:37:30.549Z,20.03
2023-09-19T11:40:17.744Z,20.32
2023-09-19T11:42:52.503Z,20.38
2023-09-19T11:45:59.251Z,20.11
2023-09-19T11:48:29.297Z,20.25
2023-09-19T11:50:57.533Z,20.37
2023-09-19T11:53:24.433Z,20.58
2023-09-19T11:55:53.182Z,20.71
2023-09-19T11:58:21.285Z,20.67
2023-09-19T12:00:55.731Z,20.48
2023-09-19T12:03:22.999Z,20.57
2023-09-19T12:05:49.877Z,20.64
2023-09-19T12:08:18.484Z,20.61
2023-09-19T12:10:52.598Z,20.55
2023-09-19T12:13:20.287Z,20.52
2023-09-19T12:15:49.390Z,20.63
2023-09-19T12:18:32.019Z,20.66
2023-09-19T12:20:59.699Z,20.85
2023-09-19T12:23:29.266Z,20.56
2023-09-19T12:25:58.864Z,20.65
2023-09-19T12:28:33.494Z,20.64
2023-09-19T12:31:10.292Z,20.88
2023-09-19T12:33:38.321Z,20.73
2023-09-19T12:36:26.668Z,20.58
2023-09-19T12:38:59.680Z,20.79
2023-09-19T12:41:27.352Z,20.95
2023-09-19T12:43:55.691Z,20.83
2023-09-19T12:46:29.203Z,20.65
2023-09-19T12:49:21.242Z,20.82
2023-09-19T12:51:49.163Z,20.85
2023-09-19T12:54:17.262Z,20.89
2023-09-19T12:56:46.315Z,20.90
2023-09-19T12:59:16.734Z,20.91
2023-09-19T13:01:50.294Z,20.74
2023-09-19T13:04:22.263Z,20.68
2023-09-19T13:06:51.902Z,20.64
2023-09-19T13:09:21.726Z,20.52
2023-09-19T13:11:49.434Z,20.48
2023-09-19T13:14:22.265Z,20.53
2023-09-19T13:17:05.549Z,20.50
2023-09-19T13:19:59.531Z,20.41
2023-09-19T13:22:55.135Z,20.49
2023-09-19T13:25:23.364Z,20.34
2023-09-19T13:27:53.799Z,20.24
2023-09-19T13:30:21.628Z,20.23
2023-09-19T13:32:48.850Z,20.21
2023-09-19T13:35:16.702Z,20.12
2023-09-19T13:37:44.806Z,20.02
2023-09-19T13:40:13.001Z,20.01
2023-09-19T13:42:41.336Z,20.00
2023-09-19T13:45:09.283Z,20.00
2023-09-19T13:47:37.828Z,19.95
2023-09-19T13:50:05.929Z,19.92
2023-09-19T13:52:33.054Z,19.96
2023-09-19T13:55:00.709Z,20.02
2023-09-19T13:57:28.077Z,20.07
2023-09-19T13:59:56.984Z,19.99
2023-09-19T14:02:24.397Z,20.00
2023-09-19T14:04:54.836Z,19.94
2023-09-19T14:07:22.638Z,19.95
2023-09-19T14:09:49.456Z,19.95
2023-09-19T14:12:16.797Z,19.91
2023-09-19T14:14:44.039Z,19.93
2023-09-19T14:17:11.152Z,19.95
2023-09-19T14:19:40.371Z,19.97
2023-09-19T14:22:11.304Z,19.99
2023-09-19T14:24:42.435Z,19.99
2023-09-19T14:27:10.451Z,20.01
2023-09-19T14:29:41.066Z,19.99
2023-09-19T14:32:08.015Z,20.01
2023-09-19T14:34:35.011Z,20.10
2023-09-19T14:37:01.929Z,20.12
2023-09-19T14:39:31.121Z,20.14
2023-09-19T14:42:01.128Z,20.16
2023-09-19T14:44:34.657Z,20.09
2023-09-19T14:47:01.493Z,20.03
2023-09-19T14:49:30.196Z,19.99
2023-09-19T14:51:56.973Z,19.98
2023-09-19T14:54:25.332Z,19.98
2023-09-19T14:57:05.231Z,19.96
2023-09-19T14:59:33.363Z,19.93
2023-09-19T15:02:00.537Z,19.94
2023-09-19T15:04:31.668Z,19.93
2023-09-19T15:06:58.572Z,19.91
2023-09-19T15:09:27.493Z,19.88
2023-09-19T15:11:54.943Z,19.88
2023-09-19T15:14:22.522Z,19.87
2023-09-19T15:16:49.972Z,19.89
2023-09-19T15:19:17.936Z,19.88
2023-09-19T15:21:45.437Z,19.90
2023-09-19T15:24:12.211Z,19.88
2023-09-19T15:26:42.021Z,19.93
2023-09-19T15:29:09.016Z,20.07
2023-09-19T15:31:38.110Z,20.15
2023-09-19T15:34:06.256Z,20.20
2023-09-19T15:36:33.134Z,20.22
2023-09-19T15:39:08.773Z,20.26
2023-09-19T15:41:47.373Z,20.29
2023-09-19T15:44:16.712Z,20.22
2023-09-19T15:46:44.052Z,20.24
2023-09-19T15:49:11.305Z,20.29
2023-09-19T15:51:40.111Z,20.25
2023-09-19T15:54:16.087Z,20.21
2023-09-19T15:56:43.955Z,20.17
2023-09-19T15:59:11.171Z,20.03
2023-09-19T16:01:39.405Z,19.95
2023-09-19T16:04:06.752Z,19.93
2023-09-19T16:06:33.788Z,19.88
2023-09-19T16:09:00.960Z,19.82
2023-09-19T16:11:29.342Z,19.82
2023-09-19T16:13:57.206Z,19.78
2023-09-19T16:16:24.917Z,19.81
2023-09-19T16:19:00.896Z,19.78
2023-09-19T16:21:29.251Z,19.78
2023-09-19T16:23:57.704Z,19.77
2023-09-19T16:26:25.697Z,19.80
2023-09-19T16:28:57.989Z,19.82
2023-09-19T16:31:25.082Z,19.84
2023-09-19T16:33:51.890Z,19.86
2023-09-19T16:36:20.108Z,19.83
2023-09-19T16:38:49.222Z,19.84
2023-09-19T16:41:17.781Z,19.84
2023-09-19T16:43:44.899Z,19.84
2023-09-19T16:46:15.254Z,19.83
2023-09-19T16:49:02.321Z,19.82
2023-09-19T16:51:30.111Z,19.80
2023-09-19T16:53:57.384Z,19.79
2023-09-19T16:56:24.363Z,19.80
2023-09-19T16:58:53.088Z,19.77
2023-09-19T17:01:21.914Z,19.74
2023-09-19T17:03:49.864Z,19.71
2023-09-19T17:06:19.444Z,19.73
2023-09-19T17:08:46.994Z,19.71
2023-09-19T17:11:17.279Z,19.71
2023-09-19T17:13:45.531Z,19.68
2023-09-19T17:16:14.013Z,19.67
2023-09-19T17:18:44.401Z,19.64
2023-09-19T17:21:14.217Z,19.65
2023-09-19T17:23:42.236Z,19.60
2023-09-19T17:26:15.504Z,19.59
2023-09-19T17:28:43.190Z,19.59
2023-09-19T17:31:23.132Z,19.59
2023-09-19T17:33:52.235Z,19.57
2023-09-19T17:36:24.206Z,19.54
2023-09-19T17:38:54.404Z,19.54
2023-09-19T17:41:23.222Z,19.49
2023-09-19T17:43:58.314Z,19.47
2023-09-19T17:46:30.853Z,19.46
2023-09-19T17:48:59.480Z,19.48
2023-09-19T17:51:28.125Z,19.47
2023-09-19T17:53:58.515Z,19.46
2023-09-19T17:56:25.629Z,19.46
2023-09-19T17:59:00.281Z,19.44
2023-09-19T18:01:33.931Z,19.44
2023-09-19T18:04:03.713Z,19.45
2023-09-19T18:06:33.077Z,19.41
2023-09-19T18:09:03.107Z,19.39
2023-09-19T18:11:30.315Z,19.40
2023-09-19T18:13:58.880Z,19.38
2023-09-19T18:16:26.980Z,19.36
2023-09-19T18:18:54.949Z,19.33
2023-09-19T18:21:22.213Z,19.35
2023-09-19T18:23:58.536Z,19.31
2023-09-19T18:26:25.318Z,19.31
2023-09-19T18:28:52.219Z,19.26
2023-09-19T18:31:19.547Z,19.27
2023-09-19T18:33:51.580Z,19.26
2023-09-19T18:36:18.571Z,19.23
2023-09-19T18:38:46.292Z,19.25
2023-09-19T18:41:16.596Z,19.23
2023-09-19T18:43:43.937Z,19.22
2023-09-19T18:46:11.403Z,19.23
2023-09-19T18:48:39.450Z,19.24
2023-09-19T18:51:07.712Z,19.23
2023-09-19T18:53:35.479Z,19.21
2023-09-19T18:56:09.369Z,19.18
2023-09-19T18:58:36.387Z,19.17
2023-09-19T19:01:04.678Z,19.16
2023-09-19T19:03:32.022Z,19.15
2023-09-19T19:05:59.418Z,19.16
2023-09-19T19:08:26.848Z,19.17
2023-09-19T19:10:53.690Z,19.17
2023-09-19T19:13:20.483Z,19.18
2023-09-19T19:15:47.297Z,19.16
2023-09-19T19:18:14.111Z,19.15
2023-09-19T19:20:42.936Z,19.15
2023-09-19T19:23:10.996Z,19.12
2023-09-19T19:25:38.896Z,19.11
2023-09-19T19:28:06.322Z,19.11
2023-09-19T19:30:33.362Z,19.11
2023-09-19T19:33:00.138Z,19.13
2023-09-19T19:35:30.398Z,19.11
2023-09-19T19:37:57.405Z,19.09
2023-09-19T19:40:24.276Z,19.04
2023-09-19T19:42:51.574Z,19.07
2023-09-19T19:45:18.313Z,19.06
2023-09-19T19:47:45.270Z,19.08
2023-09-19T19:50:15.084Z,19.05
2023-09-19T19:52:41.820Z,19.03
2023-09-19T19:55:10.818Z,19.05
2023-09-19T19:57:38.143Z,19.05
2023-09-19T20:00:07.807Z,19.03
2023-09-19T20:02:36.793Z,18.99
2023-09-19T20:05:08.072Z,19.00
2023-09-19T20:07:35.533Z,18.98
2023-09-19T20:10:02.485Z,18.97
2023-09-19T20:12:30.017Z,18.96
2023-09-19T20:14:57.690Z,18.95
2023-09-19T20:17:25.605Z,18.97
2023-09-19T20:19:53.941Z,18.97
2023-09-19T20:22:20.796Z,18.96
2023-09-19T20:24:48.523Z,18.95
2023-09-19T20:27:15.271Z,18.97
2023-09-19T20:29:43.304Z,18.97
2023-09-19T20:32:10.690Z,18.96
2023-09-19T20:34:37.440Z,18.94
2023-09-19T20:37:06.758Z,18.95
2023-09-19T20:39:33.656Z,18.95
2023-09-19T20:42:00.474Z,18.94
2023-09-19T20:44:28.362Z,18.91
2023-09-19T20:46:56.081Z,18.92
2023-09-19T20:49:25.065Z,18.93
2023-09-19T20:51:52.157Z,18.91
2023-09-19T20:54:18.909Z,18.91
2023-09-19T20:56:45.718Z,18.91
2023-09-19T20:59:12.856Z,18.92
2023-09-19T21:01:39.823Z,18.92
2023-09-19T21:04:06.798Z,18.93
2023-09-19T21:06:33.679Z,18.94
2023-09-19T21:09:00.410Z,18.93
2023-09-19T21:11:29.331Z,18.95
2023-09-19T21:13:56.574Z,18.94
2023-09-19T21:16:23.339Z,18.94
2023-09-19T21:18:50.718Z,18.90
2023-09-19T21:21:17.623Z,18.87
2023-09-19T21:23:45.388Z,18.86
2023-09-19T21:26:12.790Z,18.87
2023-09-19T21:28:40.181Z,18.86
2023-09-19T21:31:09.764Z,18.79
2023-09-19T21:33:39.050Z,18.82
2023-09-19T21:36:10.844Z,18.78
2023-09-19T21:38:41.025Z,18.75
2023-09-19T21:41:15.288Z,18.77
2023-09-19T21:43:42.244Z,18.79
2023-09-19T21:46:09.535Z,18.73
2023-09-19T21:48:36.799Z,18.76
2023-09-19T21:51:07.214Z,18.71
2023-09-19T21:53:37.466Z,18.72
2023-09-19T21:56:06.484Z,18.71
2023-09-19T21:58:36.523Z,18.71
2023-09-19T22:01:08.378Z,18.68
2023-09-19T22:03:37.833Z,18.66
2023-09-19T22:06:13.703Z,18.63
2023-09-19T22:08:41.291Z,18.62
2023-09-19T22:11:12.151Z,18.64
2023-09-19T22:13:44.765Z,18.64
2023-09-19T22:16:16.512Z,18.65
2023-09-19T22:18:47.379Z,18.65
2023-09-19T22:21:20.192Z,18.63
2023-09-19T22:23:47.959Z,18.60
2023-09-19T22:26:20.017Z,18.58
2023-09-19T22:28:51.478Z,18.59
2023-09-19T22:31:27.737Z,18.62
2023-09-19T22:33:58.848Z,18.63
2023-09-19T22:36:37.833Z,18.62
2023-09-19T22:39:05.431Z,18.62
2023-09-19T22:41:33.768Z,18.62
2023-09-19T22:44:01.414Z,18.63
2023-09-19T22:46:29.250Z,18.64
2023-09-19T22:48:56.812Z,18.62
2023-09-19T22:51:24.579Z,18.59
2023-09-19T22:54:00.546Z,18.61
2023-09-19T22:56:29.008Z,18.63
2023-09-19T22:58:56.895Z,18.63
2023-09-19T23:01:35.868Z,18.66
2023-09-19T23:04:09.636Z,18.70
2023-09-19T23:06:37.010Z,18.69
2023-09-19T23:09:05.150Z,18.68
2023-09-19T23:11:33.689Z,18.67
2023-09-19T23:14:02.502Z,18.69
2023-09-19T23:16:29.424Z,18.69
2023-09-19T23:18:58.261Z,18.68
2023-09-19T23:21:29.807Z,18.69
2023-09-19T23:23:58.617Z,18.70
2023-09-19T23:26:28.680Z,18.72
2023-09-19T23:28:55.739Z,18.72
2023-09-19T23:31:23.594Z,18.73
2023-09-19T23:33:51.827Z,18.74
2023-09-19T23:36:18.606Z,18.76
2023-09-19T23:38:48.262Z,18.75
2023-09-19T23:41:22.472Z,18.78
2023-09-19T23:43:53.857Z,18.76
2023-09-19T23:46:22.091Z,18.74
2023-09-19T23:48:48.945Z,18.76
2023-09-19T23:51:20.967Z,18.73
2023-09-19T23:53:47.743Z,18.72
2023-09-19T23:56:16.074Z,18.73
2023-09-19T23:58:48.352Z,18.71
